< < Back
Terminal Aerodrome Forecast


Current Version              Previous Versions:   1  2  3  4  5  6  7  8  9  

Terminal Aerodrome Forecast

913
FTUS44 KMRX 251120
TAFTYS
TAF
KTYS 251120Z 2512/2612 26007KT 5SM -SHRA BR BKN035 OVC070
     FM251400 23009KT P6SM VCSH BKN015 BKN035
     FM251700 22010KT P6SM BKN020 OVC060
     FM260200 23015G25KT P6SM VCTS BKN020CB OVC040
     FM260600 25010KT P6SM BKN025 BKN080=

Latest METAR

294
SAUS80 KWBC 251800
MTRTYS
METAR KTYS 251753Z 23005KT 10SM FEW025 SCT040 BKN100 20/13 A2967 RMK AO2
SLP040 60000 T02000133 10206 20117 58035


USA.gov is the U.S. government's official web portal to all federal, state and local government web resources and services.